createdAt,value
2019-04-21T00:04:53.187Z,31.90
2019-04-21T00:10:18.481Z,31.90
2019-04-21T00:15:24.183Z,32.00
2019-04-21T00:20:42.466Z,32.10
2019-04-21T00:26:05.188Z,32.20
2019-04-21T00:31:24.710Z,32.30
2019-04-21T00:36:39.657Z,32.30
2019-04-21T00:42:08.614Z,32.30
2019-04-21T00:47:26.729Z,32.40
2019-04-21T00:52:56.493Z,32.60
2019-04-21T00:58:13.124Z,32.60
2019-04-21T01:03:28.166Z,32.60
2019-04-21T01:08:44.086Z,32.70
2019-04-21T01:14:05.116Z,32.80
2019-04-21T01:19:16.653Z,32.90
2019-04-21T01:24:19.710Z,33.20
2019-04-21T01:29:58.778Z,33.00
2019-04-21T01:35:10.068Z,33.00
2019-04-21T01:40:29.670Z,32.90
2019-04-21T01:45:45.844Z,32.80
2019-04-21T01:51:04.379Z,32.80
2019-04-21T01:56:40.154Z,32.80
2019-04-21T02:02:00.413Z,32.80
2019-04-21T02:07:16.246Z,32.80
2019-04-21T02:12:36.053Z,32.80
2019-04-21T02:17:47.037Z,32.80
2019-04-21T02:23:20.425Z,32.80
2019-04-21T02:28:30.875Z,32.90
2019-04-21T02:33:54.226Z,32.90
2019-04-21T02:39:16.392Z,33.00
2019-04-21T02:44:26.476Z,33.00
2019-04-21T03:00:28.957Z,33.10
2019-04-21T03:16:23.461Z,33.30
2019-04-21T03:21:45.657Z,33.40
2019-04-21T03:27:11.303Z,33.50
2019-04-21T03:37:42.399Z,33.50
2019-04-21T03:42:52.999Z,33.60
2019-04-21T03:48:11.481Z,33.60
2019-04-21T03:53:25.076Z,33.60
2019-04-21T03:58:55.976Z,33.70
2019-04-21T04:09:52.759Z,33.80
2019-04-21T04:15:03.065Z,33.90
2019-04-21T04:20:31.287Z,33.90
2019-04-21T04:25:42.864Z,34.00
2019-04-21T04:36:30.310Z,34.10
2019-04-21T04:52:32.594Z,34.30
2019-04-21T04:57:53.119Z,34.40
2019-04-21T05:08:34.332Z,34.60
2019-04-21T05:13:36.455Z,35.30
2019-04-21T05:19:06.405Z,34.70
2019-04-21T05:24:01.296Z,34.70
2019-04-21T05:29:15.733Z,34.90
2019-04-21T05:34:42.692Z,35.00
2019-04-21T05:40:05.808Z,35.10
2019-04-21T05:45:47.384Z,35.20
2019-04-21T05:50:46.272Z,35.40
2019-04-21T05:56:12.840Z,35.40
2019-04-21T06:01:38.014Z,35.60
2019-04-21T06:06:51.506Z,35.70
2019-04-21T06:12:03.180Z,35.90
2019-04-21T06:17:25.029Z,36.00
2019-04-21T06:22:36.359Z,36.20
2019-04-21T06:27:57.534Z,36.30
2019-04-21T06:33:16.731Z,36.40
2019-04-21T06:44:33.545Z,36.70
2019-04-21T06:49:21.781Z,36.90
2019-04-21T06:54:44.685Z,37.10
2019-04-21T06:59:55.586Z,37.20
2019-04-21T07:05:15.371Z,37.30
2019-04-21T07:10:31.789Z,37.60
2019-04-21T07:15:53.811Z,37.60
2019-04-21T07:21:06.139Z,37.70
2019-04-21T07:26:28.327Z,37.80
2019-04-21T07:31:46.986Z,38.00
2019-04-21T07:36:57.911Z,38.00
2019-04-21T07:42:13.476Z,38.10
2019-04-21T07:47:53.432Z,38.30
2019-04-21T07:53:21.194Z,38.30
2019-04-21T07:58:43.109Z,38.40
2019-04-21T08:03:57.030Z,38.50
2019-04-21T08:09:07.382Z,38.50
2019-04-21T08:14:31.224Z,38.40
2019-04-21T08:19:42.573Z,38.80
2019-04-21T08:25:04.014Z,38.90
2019-04-21T08:30:21.478Z,38.90
2019-04-21T08:40:58.998Z,38.90
2019-04-21T08:46:16.952Z,38.90
2019-04-21T08:57:10.416Z,34.60
2019-04-21T09:02:34.082Z,35.30
2019-04-21T09:07:49.315Z,34.40
2019-04-21T09:12:58.922Z,34.40
2019-04-21T09:18:18.901Z,34.10
2019-04-21T09:23:39.213Z,34.30
2019-04-21T09:28:48.355Z,34.40
2019-04-21T09:33:59.333Z,34.80
2019-04-21T09:39:20.143Z,34.90
2019-04-21T09:44:38.232Z,35.20
2019-04-21T09:49:51.972Z,35.30
2019-04-21T09:55:14.334Z,35.40
2019-04-21T10:00:29.331Z,35.30
2019-04-21T10:05:43.654Z,35.40
2019-04-21T10:10:59.374Z,35.40
2019-04-21T10:16:36.863Z,35.30
2019-04-21T10:21:52.629Z,35.50
2019-04-21T10:27:10.528Z,35.20
2019-04-21T10:32:26.231Z,35.10
2019-04-21T10:37:55.863Z,35.00
2019-04-21T10:43:00.231Z,34.90
2019-04-21T10:48:16.841Z,34.80
2019-04-21T10:53:34.844Z,34.90
2019-04-21T10:58:52.462Z,34.70
2019-04-21T11:04:27.826Z,34.60
2019-04-21T11:09:42.241Z,34.60
2019-04-21T11:15:01.183Z,34.60
2019-04-21T11:20:17.239Z,34.50
2019-04-21T11:25:33.870Z,34.80
2019-04-21T11:30:50.873Z,34.60
2019-04-21T11:36:07.358Z,34.50
2019-04-21T11:41:23.922Z,34.40
2019-04-21T11:46:40.394Z,34.40
2019-04-21T11:51:56.853Z,34.50
2019-04-21T11:57:20.590Z,34.50
2019-04-21T12:02:31.392Z,34.30
2019-04-21T12:07:47.416Z,34.20
2019-04-21T12:13:04.641Z,34.30
2019-04-21T12:18:20.150Z,34.40
2019-04-21T12:23:38.467Z,34.30
2019-04-21T12:28:55.890Z,34.40
2019-04-21T12:34:14.160Z,34.50
2019-04-21T12:39:30.557Z,34.40
2019-04-21T12:44:47.542Z,34.20
2019-04-21T12:50:04.593Z,34.40
2019-04-21T12:55:26.157Z,34.40
2019-04-21T13:00:40.928Z,34.40
2019-04-21T13:05:58.059Z,34.20
2019-04-21T13:11:15.030Z,34.80
2019-04-21T13:16:31.673Z,34.20
2019-04-21T13:21:47.980Z,34.30
2019-04-21T13:27:05.700Z,34.20
2019-04-21T13:32:21.816Z,34.10
2019-04-21T13:37:39.622Z,34.10
2019-04-21T13:43:00.379Z,34.10
2019-04-21T13:48:12.942Z,34.00
2019-04-21T13:53:28.647Z,34.00
2019-04-21T13:58:46.197Z,33.90
2019-04-21T14:04:02.089Z,33.90
2019-04-21T14:09:17.887Z,33.90
2019-04-21T14:14:34.553Z,33.90
2019-04-21T14:19:51.031Z,33.80
2019-04-21T14:25:09.828Z,33.70
2019-04-21T14:30:26.395Z,33.50
2019-04-21T14:35:43.078Z,33.40
2019-04-21T14:41:00.056Z,33.20
2019-04-21T14:46:40.790Z,33.10
2019-04-21T14:52:01.165Z,32.90
2019-04-21T14:57:16.904Z,32.90
2019-04-21T15:02:33.859Z,32.70
2019-04-21T15:07:50.907Z,32.80
2019-04-21T15:13:07.717Z,32.60
2019-04-21T15:18:23.470Z,32.50
2019-04-21T15:23:40.295Z,32.40
2019-04-21T15:28:57.080Z,32.50
2019-04-21T15:34:13.181Z,32.40
2019-04-21T15:39:29.890Z,32.30
2019-04-21T15:44:45.719Z,32.30
2019-04-21T15:50:07.484Z,32.10
2019-04-21T15:55:39.164Z,31.90
2019-04-21T16:01:00.688Z,31.70
2019-04-21T16:06:19.345Z,31.60
2019-04-21T16:11:37.888Z,31.40
2019-04-21T16:16:54.377Z,31.20
2019-04-21T16:22:10.800Z,31.20
2019-04-21T16:27:27.683Z,31.10
2019-04-21T16:32:43.985Z,31.00
2019-04-21T16:38:01.251Z,31.20
2019-04-21T16:43:18.352Z,31.10
2019-04-21T16:48:35.753Z,31.20
2019-04-21T16:54:01.955Z,31.20
2019-04-21T16:59:21.890Z,30.70
2019-04-21T17:04:38.233Z,31.00
2019-04-21T17:09:54.892Z,31.50
2019-04-21T17:15:31.506Z,31.70
2019-04-21T17:20:41.100Z,31.80
2019-04-21T17:25:47.399Z,31.60
2019-04-21T17:31:04.714Z,31.50
2019-04-21T17:36:21.268Z,31.50
2019-04-21T17:41:42.517Z,31.50
2019-04-21T17:47:01.406Z,31.50
2019-04-21T17:52:23.144Z,31.40
2019-04-21T17:57:57.033Z,31.60
2019-04-21T18:03:27.288Z,31.50
2019-04-21T18:08:30.625Z,31.40
2019-04-21T18:13:30.885Z,31.30
2019-04-21T18:18:46.726Z,31.30
2019-04-21T18:24:10.345Z,31.20
2019-04-21T18:29:21.624Z,31.10
2019-04-21T18:35:01.566Z,31.00
2019-04-21T18:40:22.573Z,30.90
2019-04-21T18:46:22.437Z,30.70
2019-04-21T18:51:20.911Z,30.60
2019-04-21T18:56:50.983Z,30.50
2019-04-21T19:02:02.120Z,30.50
2019-04-21T19:07:25.247Z,30.40
2019-04-21T19:13:16.172Z,30.40
2019-04-21T19:23:33.938Z,30.90
2019-04-21T19:28:46.939Z,30.10
2019-04-21T19:33:48.107Z,28.20
2019-04-21T19:39:03.457Z,29.10
2019-04-21T19:44:33.828Z,29.60
2019-04-21T19:49:55.629Z,29.90
2019-04-21T19:54:50.658Z,30.00
2019-04-21T20:00:08.356Z,30.00
2019-04-21T20:05:35.000Z,29.90
2019-04-21T20:10:59.413Z,29.80
2019-04-21T20:16:21.554Z,29.60
2019-04-21T20:21:18.190Z,29.50
2019-04-21T20:26:39.099Z,29.30
2019-04-21T20:32:17.899Z,29.30
2019-04-21T20:37:25.144Z,29.10
2019-04-21T20:42:40.239Z,29.00
2019-04-21T20:47:50.510Z,28.90
2019-04-21T20:53:24.906Z,28.90
2019-04-21T20:58:34.545Z,28.80
2019-04-21T21:03:56.049Z,28.90
2019-04-21T21:09:14.176Z,28.80
2019-04-21T21:14:31.700Z,28.70
2019-04-21T21:19:55.770Z,28.70
2019-04-21T21:25:11.690Z,28.70
2019-04-21T21:30:22.750Z,28.70
2019-04-21T21:35:41.135Z,28.60
2019-04-21T21:40:56.632Z,28.70
2019-04-21T21:46:15.264Z,28.70
2019-04-21T21:51:38.184Z,28.70
2019-04-21T21:56:41.054Z,28.70
2019-04-21T22:01:58.317Z,28.70
2019-04-21T22:07:16.054Z,28.70
2019-04-21T22:12:40.360Z,28.70
2019-04-21T22:18:12.085Z,28.80
2019-04-21T22:23:12.977Z,28.80
2019-04-21T22:28:25.417Z,28.80
2019-04-21T22:33:48.392Z,28.80
2019-04-21T22:39:16.196Z,29.30
2019-04-21T22:44:19.025Z,28.80
2019-04-21T22:49:35.061Z,28.90
2019-04-21T22:54:52.252Z,28.90
2019-04-21T23:00:14.492Z,29.00
2019-04-21T23:05:34.366Z,29.00
2019-04-21T23:10:49.678Z,29.00
2019-04-21T23:16:05.845Z,29.00
2019-04-21T23:21:41.227Z,29.10
2019-04-21T23:26:51.374Z,29.10
2019-04-21T23:32:14.943Z,29.10
2019-04-21T23:37:19.622Z,29.20
2019-04-21T23:42:36.571Z,29.20
2019-04-21T23:48:01.658Z,29.30
2019-04-21T23:53:07.590Z,29.30
2019-04-21T23:58:27.401Z,29.30
